Time,TemperatureF,DewpointF,PressureIn,WindDirection,WindDirectionDegrees,WindSpeedMPH,WindSpeedGustMPH,Humidity,HourlyPrecipIn,Conditions,Clouds,dailyrainin,SoftwareType,DateUTC
2013-01-07 00:00:00,32.4,26.6,29.70,WNW,300,0.7,2.3,79,0.00,RA,SCT,0.00,WeatherDisplay:10.37,2013-01-07 05:00:00,
2013-01-07 00:01:00,32.4,26.6,29.70,WNW,300,0.9,2.3,79,0.00,RA,SCT,0.00,WeatherDisplay:10.37,2013-01-07 05:01:00,
2013-01-07 00:06:00,32.2,26.4,29.70,WNW,300,0.0,0.0,79,0.00,RA,SCT,0.00,WeatherDisplay:10.37,2013-01-07 05:06:00,
2013-01-07 00:11:00,32.2,26.7,29.70,SSW,200,1.1,2.3,80,0.00,CLR,SCT,0.00,WeatherDisplay:10.37,2013-01-07 05:11:00,
2013-01-07 00:16:00,32.1,26.6,29.70,SSW,212,0.7,2.3,80,0.00,CLR,SCT,0.00,WeatherDisplay:10.37,2013-01-07 05:16:00,
2013-01-07 00:21:00,32.0,26.5,29.70,SSW,212,0.3,1.1,80,0.00,CLR,SCT,0.00,WeatherDisplay:10.37,2013-01-07 05:21:00,
2013-01-07 00:26:00,31.9,26.4,29.70,NW,305,1.3,3.5,80,0.00,CLR,SCT,0.00,WeatherDisplay:10.37,2013-01-07 05:26:00,
2013-01-07 00:31:00,31.9,26.4,29.70,North,5,0.7,3.5,80,0.00,CLR,SCT,0.00,WeatherDisplay:10.37,2013-01-07 05:31:00,
2013-01-07 00:36:00,31.9,26.4,29.70,NNE,32,0.5,1.1,80,0.00,CLR,SCT,0.00,WeatherDisplay:10.37,2013-01-07 05:36:00,
2013-01-07 00:41:00,31.9,26.7,29.71,West,268,0.9,3.0,81,0.00,CLR,SCT,0.00,WeatherDisplay:10.37,2013-01-07 05:41:00,
2013-01-07 00:46:00,31.8,26.6,29.71,NNW,329,0.2,1.1,81,0.00,CLR,SCT,0.00,WeatherDisplay:10.37,2013-01-07 05:46:00,
2013-01-07 00:51:00,31.7,26.5,29.71,North,350,0.3,1.1,81,0.00,CLR,SCT,0.00,WeatherDisplay:10.37,2013-01-07 05:51:00,
2013-01-07 00:56:00,31.7,26.5,29.71,ENE,78,1.0,4.6,81,0.00,CLR,SCT,0.00,WeatherDisplay:10.37,2013-01-07 05:56:00,
2013-01-07 01:01:00,31.7,26.5,29.71,NE,38,0.4,2.3,81,0.00,CLR,SCT,0.00,WeatherDisplay:10.37,2013-01-07 06:01:00,
2013-01-07 01:06:00,31.8,26.6,29.71,NW,321,1.2,4.6,81,0.00,CLR,SCT,0.00,WeatherDisplay:10.37,2013-01-07 06:06:00,
2013-01-07 01:11:00,31.9,26.7,29.71,West,273,0.7,6.9,81,0.00,CLR,SCT,0.00,WeatherDisplay:10.37,2013-01-07 06:11:00,
2013-01-07 01:16:00,32.0,26.8,29.72,NE,47,0.5,1.1,81,0.00,CLR,SCT,0.00,WeatherDisplay:10.37,2013-01-07 06:16:00,
2013-01-07 01:21:00,32.1,26.6,29.72,North,11,1.1,3.5,80,0.00,CLR,SCT,0.00,WeatherDisplay:10.37,2013-01-07 06:21:00,
2013-01-07 01:26:00,32.1,26.6,29.72,North,11,0.3,1.1,80,0.00,CLR,SCT,0.00,WeatherDisplay:10.37,2013-01-07 06:26:00,
2013-01-07 01:31:00,31.9,26.4,29.73,North,11,1.0,1.1,80,0.00,CLR,SCT,0.00,WeatherDisplay:10.37,2013-01-07 06:31:00,
2013-01-07 01:36:00,31.7,26.5,29.73,North,11,0.1,1.1,81,0.00,CLR,SCT,0.00,WeatherDisplay:10.37,2013-01-07 06:36:00,
2013-01-07 01:41:00,31.7,26.8,29.73,North,355,1.5,3.5,82,0.00,CLR,SCT,0.00,WeatherDisplay:10.37,2013-01-07 06:41:00,
2013-01-07 01:46:00,32.0,27.1,29.73,North,355,3.6,4.6,82,0.00,CLR,SCT,0.00,WeatherDisplay:10.37,2013-01-07 06:46:00,
2013-01-07 01:51:00,32.6,27.1,29.73,NNW,335,0.2,1.1,80,0.00,CLR,SCT,0.00,WeatherDisplay:10.37,2013-01-07 06:51:00,
2013-01-07 01:56:00,32.9,27.4,29.73,NNW,335,2.0,3.5,80,0.00,CLR,SCT,0.00,WeatherDisplay:10.37,2013-01-07 06:56:00,
2013-01-07 02:01:00,33.1,27.3,29.74,NNW,334,0.3,1.1,79,0.00,CLR,SCT,0.00,WeatherDisplay:10.37,2013-01-07 07:01:00,
2013-01-07 02:06:00,33.1,27.3,29.74,NNW,334,0.4,1.1,79,0.00,CLR,SCT,0.00,WeatherDisplay:10.37,2013-01-07 07:06:00,
2013-01-07 02:11:00,33.2,27.4,29.74,NNW,334,1.5,2.3,79,0.00,CLR,SCT,0.00,WeatherDisplay:10.37,2013-01-07 07:11:00,
2013-01-07 02:16:00,33.2,27.4,29.74,WNW,298,1.3,2.3,79,0.00,CLR,SCT,0.00,WeatherDisplay:10.37,2013-01-07 07:16:00,
2013-01-07 02:21:00,33.0,27.5,29.74,WNW,298,1.3,3.5,80,0.00,CLR,SCT,0.00,WeatherDisplay:10.37,2013-01-07 07:21:00,
2013-01-07 02:26:00,33.0,27.5,29.74,WNW,298,1.2,2.3,80,0.00,CLR,SCT,0.00,WeatherDisplay:10.37,2013-01-07 07:26:00,
2013-01-07 02:31:00,32.9,27.4,29.74,WNW,298,0.7,3.5,80,0.00,CLR,SCT,0.00,WeatherDisplay:10.37,2013-01-07 07:31:00,
2013-01-07 02:36:00,32.6,27.1,29.74,WNW,298,1.3,2.3,80,0.00,CLR,SCT,0.00,WeatherDisplay:10.37,2013-01-07 07:36:00,
2013-01-07 02:41:00,32.3,27.1,29.74,WNW,298,1.2,2.3,81,0.00,CLR,SCT,0.00,WeatherDisplay:10.37,2013-01-07 07:41:00,
2013-01-07 02:46:00,32.0,26.8,29.75,NNW,331,1.1,2.3,81,0.00,CLR,SCT,0.00,WeatherDisplay:10.37,2013-01-07 07:46:00,
2013-01-07 02:51:00,32.0,27.1,29.74,WNW,301,1.3,2.3,82,0.00,CLR,SCT,0.00,WeatherDisplay:10.37,2013-01-07 07:51:00,
2013-01-07 02:56:00,32.0,27.1,29.75,WNW,297,2.2,3.5,82,0.00,CLR,SCT,0.00,WeatherDisplay:10.37,2013-01-07 07:56:00,
2013-01-07 03:01:00,32.1,27.2,29.75,WNW,297,1.1,2.3,82,0.00,CLR,SCT,0.00,WeatherDisplay:10.37,2013-01-07 08:01:00,
2013-01-07 03:06:00,32.1,27.2,29.75,WNW,297,0.0,0.0,82,0.00,CLR,SCT,0.00,WeatherDisplay:10.37,2013-01-07 08:06:00,
2013-01-07 03:11:00,32.0,27.1,29.75,NNW,337,2.1,3.5,82,0.00,CLR,SCT,0.00,WeatherDisplay:10.37,2013-01-07 08:11:00,
2013-01-07 03:16:00,31.8,27.2,29.75,NNW,338,0.4,1.1,83,0.00,CLR,SCT,0.00,WeatherDisplay:10.37,2013-01-07 08:16:00,
2013-01-07 03:21:00,31.7,27.1,29.75,NNW,338,0.0,0.0,83,0.00,CLR,SCT,0.00,WeatherDisplay:10.37,2013-01-07 08:21:00,
2013-01-07 03:26:00,31.6,27.0,29.75,NNW,338,0.0,0.0,83,0.00,CLR,SCT,0.00,WeatherDisplay:10.37,2013-01-07 08:26:00,
2013-01-07 03:31:00,31.4,26.8,29.75,NNW,338,0.6,1.1,83,0.00,CLR,SCT,0.00,WeatherDisplay:10.37,2013-01-07 08:31:00,
2013-01-07 03:36:00,31.3,27.0,29.76,NNW,338,0.2,1.1,84,0.00,CLR,SCT,0.00,WeatherDisplay:10.37,2013-01-07 08:36:00,
2013-01-07 03:41:00,31.2,26.9,29.76,NNW,346,0.3,1.1,84,0.00,CLR,SCT,0.00,WeatherDisplay:10.37,2013-01-07 08:41:00,
2013-01-07 03:46:00,31.2,26.9,29.76,NNW,346,1.0,2.3,84,0.00,CLR,SCT,0.00,WeatherDisplay:10.37,2013-01-07 08:46:00,
2013-01-07 03:51:00,31.2,27.2,29.76,NW,322,0.9,2.3,85,0.00,CLR,SCT,0.00,WeatherDisplay:10.37,2013-01-07 08:51:00,
2013-01-07 03:56:00,31.5,27.5,29.76,NW,322,1.0,2.3,85,0.00,CLR,SCT,0.00,WeatherDisplay:10.37,2013-01-07 08:56:00,
2013-01-07 04:01:00,31.7,27.4,29.76,NW,322,0.8,2.3,84,0.00,CLR,SCT,0.00,WeatherDisplay:10.37,2013-01-07 09:01:00,
2013-01-07 04:06:00,31.8,27.5,29.75,NW,322,1.1,2.3,84,0.00,CLR,SCT,0.00,WeatherDisplay:10.37,2013-01-07 09:06:00,
2013-01-07 04:11:00,31.8,27.5,29.76,NW,321,1.4,2.3,84,0.00,CLR,SCT,0.00,WeatherDisplay:10.37,2013-01-07 09:11:00,
2013-01-07 04:16:00,31.8,27.5,29.76,NW,304,1.1,2.3,84,0.00,CLR,SCT,0.00,WeatherDisplay:10.37,2013-01-07 09:16:00,
2013-01-07 04:21:00,31.7,27.7,29.76,WNW,302,1.7,3.5,85,0.00,CLR,SCT,0.00,WeatherDisplay:10.37,2013-01-07 09:21:00,
2013-01-07 04:26:00,31.7,27.7,29.76,NW,325,2.1,3.5,85,0.00,CLR,SCT,0.00,WeatherDisplay:10.37,2013-01-07 09:26:00,
2013-01-07 04:31:00,31.9,27.6,29.76,WNW,292,2.5,4.6,84,0.00,CLR,SCT,0.00,WeatherDisplay:10.37,2013-01-07 09:31:00,
2013-01-07 04:36:00,32.0,27.7,29.76,WNW,292,1.1,2.3,84,0.00,CLR,SCT,0.00,WeatherDisplay:10.37,2013-01-07 09:36:00,
2013-01-07 04:41:00,32.0,27.7,29.76,WNW,292,1.3,2.3,84,0.00,CLR,SCT,0.00,WeatherDisplay:10.37,2013-01-07 09:41:00,
2013-01-07 04:46:00,32.0,28.0,29.77,WNW,292,1.2,3.5,85,0.00,CLR,SCT,0.00,WeatherDisplay:10.37,2013-01-07 09:46:00,
2013-01-07 04:51:00,32.2,28.2,29.77,WNW,284,2.2,3.5,85,0.00,CLR,SCT,0.00,WeatherDisplay:10.37,2013-01-07 09:51:00,
2013-01-07 04:56:00,32.4,28.1,29.77,WNW,291,1.4,2.3,84,0.00,CLR,SCT,0.00,WeatherDisplay:10.37,2013-01-07 09:56:00,
2013-01-07 05:01:00,32.7,28.4,29.78,WNW,282,3.1,5.8,84,0.00,CLR,SCT,0.00,WeatherDisplay:10.37,2013-01-07 10:01:00,
2013-01-07 05:06:00,32.9,28.6,29.78,WNW,298,2.3,3.5,84,0.00,CLR,SCT,0.00,WeatherDisplay:10.37,2013-01-07 10:06:00,
2013-01-07 05:11:00,32.9,28.3,29.78,WNW,292,2.7,4.6,83,0.00,CLR,SCT,0.00,WeatherDisplay:10.37,2013-01-07 10:11:00,
2013-01-07 05:16:00,32.9,28.3,29.79,WNW,288,3.1,5.0,83,0.00,CLR,SCT,0.00,WeatherDisplay:10.37,2013-01-07 10:16:00,
2013-01-07 05:21:00,33.1,28.5,29.79,WNW,286,2.9,3.5,83,0.00,CLR,SCT,0.00,WeatherDisplay:10.37,2013-01-07 10:21:00,
2013-01-07 05:26:00,33.0,28.4,29.80,WNW,294,2.1,3.5,83,0.00,CLR,SCT,0.00,WeatherDisplay:10.37,2013-01-07 10:26:00,
2013-01-07 05:31:00,33.1,28.5,29.80,WNW,288,3.1,4.6,83,0.00,CLR,SCT,0.00,WeatherDisplay:10.37,2013-01-07 10:31:00,
2013-01-07 05:36:00,33.2,28.3,29.81,NNW,330,1.9,4.0,82,0.00,CLR,SCT,0.00,WeatherDisplay:10.37,2013-01-07 10:36:00,
2013-01-07 05:41:00,33.2,28.6,29.81,NW,306,1.2,2.3,83,0.00,CLR,SCT,0.00,WeatherDisplay:10.37,2013-01-07 10:41:00,
2013-01-07 05:46:00,33.1,28.5,29.81,WNW,301,0.9,2.3,83,0.00,CLR,SCT,0.00,WeatherDisplay:10.37,2013-01-07 10:46:00,
2013-01-07 05:51:00,33.0,28.4,29.81,WNW,302,0.4,2.3,83,0.00,CLR,SCT,0.00,WeatherDisplay:10.37,2013-01-07 10:51:00,
2013-01-07 05:56:00,33.0,28.4,29.81,NW,308,0.8,2.3,83,0.00,CLR,SCT,0.00,WeatherDisplay:10.37,2013-01-07 10:56:00,
2013-01-07 06:01:00,32.9,28.6,29.82,NW,309,1.1,2.3,84,0.00,CLR,SCT,0.00,WeatherDisplay:10.37,2013-01-07 11:01:00,
2013-01-07 06:06:00,32.9,28.3,29.82,NW,309,1.1,2.3,83,0.00,CLR,SCT,0.00,WeatherDisplay:10.37,2013-01-07 11:06:00,
2013-01-07 06:11:00,32.7,28.4,29.82,NW,320,1.7,3.5,84,0.00,CLR,SCT,0.00,WeatherDisplay:10.37,2013-01-07 11:11:00,
2013-01-07 06:16:00,32.7,28.4,29.83,NW,320,1.1,3.5,84,0.00,CLR,SCT,0.00,WeatherDisplay:10.37,2013-01-07 11:16:00,
2013-01-07 06:21:00,32.7,28.4,29.83,NNW,342,3.6,4.6,84,0.00,CLR,SCT,0.00,WeatherDisplay:10.37,2013-01-07 11:21:00,
2013-01-07 06:26:00,32.9,28.6,29.83,NW,326,2.2,3.5,84,0.00,CLR,SCT,0.00,WeatherDisplay:10.37,2013-01-07 11:26:00,
2013-01-07 06:31:00,32.9,28.6,29.84,NW,309,1.7,2.3,84,0.00,CLR,SCT,0.00,WeatherDisplay:10.37,2013-01-07 11:31:00,
2013-01-07 06:36:00,32.8,28.5,29.84,NW,309,0.9,3.5,84,0.00,CLR,SCT,0.00,WeatherDisplay:10.37,2013-01-07 11:36:00,
2013-01-07 06:41:00,32.6,28.6,29.84,NW,311,1.7,3.5,85,0.00,CLR,SCT,0.00,WeatherDisplay:10.37,2013-01-07 11:41:00,
2013-01-07 06:46:00,32.6,28.6,29.85,NNW,333,2.3,4.6,85,0.00,CLR,SCT,0.00,WeatherDisplay:10.37,2013-01-07 11:46:00,
2013-01-07 06:51:00,32.6,28.3,29.85,West,279,0.9,2.3,84,0.00,CLR,SCT,0.00,WeatherDisplay:10.37,2013-01-07 11:51:00,
2013-01-07 06:56:00,33.0,28.4,29.85,WNW,300,3.4,5.8,83,0.00,CLR,SCT,0.00,WeatherDisplay:10.37,2013-01-07 11:56:00,
2013-01-07 07:01:00,33.2,28.3,29.85,NNW,329,0.5,2.3,82,0.00,CLR,SCT,0.00,WeatherDisplay:10.37,2013-01-07 12:01:00,
2013-01-07 07:06:00,33.0,28.1,29.86,West,277,1.7,3.5,82,0.00,CLR,SCT,0.00,WeatherDisplay:10.37,2013-01-07 12:06:00,
2013-01-07 07:11:00,32.8,28.2,29.86,NW,306,1.7,3.5,83,0.00,CLR,SCT,0.00,WeatherDisplay:10.37,2013-01-07 12:11:00,
2013-01-07 07:16:00,32.5,27.9,29.86,SW,234,0.7,2.3,83,0.00,CLR,SCT,0.00,WeatherDisplay:10.37,2013-01-07 12:16:00,
2013-01-07 07:21:00,32.1,27.5,29.86,SW,234,0.7,2.0,83,0.00,CLR,SCT,0.00,WeatherDisplay:10.37,2013-01-07 12:21:00,
2013-01-07 07:26:00,31.9,27.6,29.87,NW,322,4.0,6.9,84,0.00,CLR,SCT,0.00,WeatherDisplay:10.37,2013-01-07 12:26:00,
2013-01-07 07:31:00,32.0,27.7,29.87,WNW,290,1.3,4.6,84,0.00,CLR,SCT,0.00,WeatherDisplay:10.37,2013-01-07 12:31:00,
2013-01-07 07:36:00,32.1,27.8,29.87,WNW,286,2.5,5.8,84,0.00,CLR,SCT,0.00,WeatherDisplay:10.37,2013-01-07 12:36:00,
2013-01-07 07:41:00,32.4,28.1,29.87,WNW,296,1.3,2.3,84,0.00,CLR,SCT,0.00,WeatherDisplay:10.37,2013-01-07 12:41:00,
2013-01-07 07:46:00,32.5,27.9,29.88,WNW,286,2.1,3.5,83,0.00,CLR,SCT,0.00,WeatherDisplay:10.37,2013-01-07 12:46:00,
2013-01-07 07:51:00,32.5,27.9,29.88,WNW,300,2.7,4.6,83,0.00,CLR,SCT,0.00,WeatherDisplay:10.37,2013-01-07 12:51:00,
2013-01-07 07:56:00,32.4,27.8,29.88,NW,310,1.1,3.5,83,0.00,CLR,SCT,0.00,WeatherDisplay:10.37,2013-01-07 12:56:00,
2013-01-07 08:01:00,32.3,28.0,29.89,West,281,1.1,2.3,84,0.00,CLR,SCT,0.00,WeatherDisplay:10.37,2013-01-07 13:01:00,
2013-01-07 08:06:00,32.0,27.7,29.89,WNW,288,2.3,4.0,84,0.00,CLR,SCT,0.00,WeatherDisplay:10.37,2013-01-07 13:06:00,
2013-01-07 08:11:00,31.8,27.5,29.89,WNW,291,3.5,5.8,84,0.00,CLR,SCT,0.00,WeatherDisplay:10.37,2013-01-07 13:11:00,
2013-01-07 08:16:00,32.2,27.6,29.89,NW,317,2.9,5.8,83,0.00,CLR,SCT,0.00,WeatherDisplay:10.37,2013-01-07 13:16:00,
2013-01-07 08:21:00,32.6,27.4,29.89,NW,313,4.9,5.8,81,0.00,CLR,SCT,0.00,WeatherDisplay:10.37,2013-01-07 13:21:00,
2013-01-07 08:26:00,32.9,27.1,29.90,NW,319,4.6,5.8,79,0.00,CLR,SCT,0.00,WeatherDisplay:10.37,2013-01-07 13:26:00,
2013-01-07 08:31:00,32.9,26.8,29.90,WNW,285,5.4,7.0,78,0.00,CLR,SCT,0.00,WeatherDisplay:10.37,2013-01-07 13:31:00,
2013-01-07 08:36:00,33.1,26.7,29.90,NW,304,4.0,6.9,77,0.00,CLR,SCT,0.00,WeatherDisplay:10.37,2013-01-07 13:36:00,
2013-01-07 08:41:00,32.9,26.2,29.91,WNW,291,6.6,9.2,76,0.00,CLR,SCT,0.00,WeatherDisplay:10.37,2013-01-07 13:41:00,
2013-01-07 08:46:00,33.3,26.2,29.91,NNW,330,5.2,8.1,75,0.00,CLR,SCT,0.00,WeatherDisplay:10.37,2013-01-07 13:46:00,
2013-01-07 08:51:00,33.5,26.1,29.91,NNW,344,5.9,8.1,74,0.00,CLR,SCT,0.00,WeatherDisplay:10.37,2013-01-07 13:51:00,
2013-01-07 08:56:00,33.7,26.0,29.92,NNW,340,6.6,9.2,73,0.00,CLR,SCT,0.00,WeatherDisplay:10.37,2013-01-07 13:56:00,
2013-01-07 09:01:00,33.8,26.1,29.92,NNW,327,4.6,6.0,73,0.00,CLR,SCT,0.00,WeatherDisplay:10.37,2013-01-07 14:01:00,
2013-01-07 09:06:00,33.8,26.1,29.92,WNW,298,6.0,11.5,73,0.00,CLR,SCT,0.00,WeatherDisplay:10.37,2013-01-07 14:06:00,
2013-01-07 09:11:00,33.7,26.0,29.93,NW,305,6.2,9.2,73,0.00,CLR,SCT,0.00,WeatherDisplay:10.37,2013-01-07 14:11:00,
2013-01-07 09:16:00,33.9,25.8,29.93,NW,305,3.6,6.9,72,0.00,CLR,SCT,0.00,WeatherDisplay:10.37,2013-01-07 14:16:00,
2013-01-07 09:21:00,34.3,25.9,29.94,NNW,344,4.4,6.0,71,0.00,CLR,SCT,0.00,WeatherDisplay:10.37,2013-01-07 14:21:00,
2013-01-07 09:26:00,34.1,26.0,29.94,WNW,298,4.9,7.0,72,0.00,CLR,SCT,0.00,WeatherDisplay:10.37,2013-01-07 14:26:00,
2013-01-07 09:31:00,34.1,25.7,29.95,SW,220,4.0,5.8,71,0.00,CLR,SCT,0.00,WeatherDisplay:10.37,2013-01-07 14:31:00,
2013-01-07 09:36:00,34.3,25.2,29.95,NNE,22,5.5,10.4,69,0.00,CLR,SCT,0.00,WeatherDisplay:10.37,2013-01-07 14:36:00,
2013-01-07 09:41:00,34.2,25.1,29.95,NW,326,8.1,13.8,69,0.00,CLR,SCT,0.00,WeatherDisplay:10.37,2013-01-07 14:41:00,
2013-01-07 09:46:00,34.3,25.2,29.95,NW,305,7.5,9.2,69,0.00,CLR,SCT,0.00,WeatherDisplay:10.37,2013-01-07 14:46:00,
2013-01-07 09:51:00,34.3,24.8,29.96,WNW,302,5.7,8.0,68,0.00,CLR,SCT,0.00,WeatherDisplay:10.37,2013-01-07 14:51:00,
2013-01-07 09:56:00,34.4,25.3,29.96,WNW,296,2.9,5.0,69,0.00,CLR,SCT,0.00,WeatherDisplay:10.37,2013-01-07 14:56:00,
2013-01-07 10:01:00,34.3,25.2,29.96,NW,326,4.5,7.0,69,0.00,CLR,SCT,0.00,WeatherDisplay:10.37,2013-01-07 15:01:00,
2013-01-07 10:06:00,34.4,25.3,29.96,West,273,5.1,11.5,69,0.00,CLR,SCT,0.00,WeatherDisplay:10.37,2013-01-07 15:06:00,
2013-01-07 10:11:00,34.3,25.9,29.97,NNW,344,5.5,10.0,71,0.00,CLR,SCT,0.00,WeatherDisplay:10.37,2013-01-07 15:11:00,
2013-01-07 10:16:00,34.3,25.5,29.97,NNW,336,8.5,11.5,70,0.00,CLR,SCT,0.00,WeatherDisplay:10.37,2013-01-07 15:16:00,
2013-01-07 10:21:00,34.0,25.2,29.97,North,351,6.1,9.2,70,0.00,CLR,SCT,0.00,WeatherDisplay:10.37,2013-01-07 15:21:00,
2013-01-07 10:26:00,33.9,24.8,29.98,NNW,328,6.2,8.0,69,0.00,CLR,SCT,0.00,WeatherDisplay:10.37,2013-01-07 15:26:00,
2013-01-07 10:31:00,33.8,24.4,29.98,WNW,292,4.7,8.1,68,0.00,CLR,SCT,0.00,WeatherDisplay:10.37,2013-01-07 15:31:00,
2013-01-07 10:36:00,33.8,24.7,29.99,WSW,245,7.1,9.2,69,0.00,CLR,SCT,0.00,WeatherDisplay:10.37,2013-01-07 15:36:00,
2013-01-07 10:41:00,33.7,24.3,29.99,WNW,300,4.5,8.1,68,0.00,CLR,SCT,0.00,WeatherDisplay:10.37,2013-01-07 15:41:00,
2013-01-07 10:46:00,33.6,23.8,29.99,NW,309,5.7,9.2,67,0.00,CLR,SCT,0.00,WeatherDisplay:10.37,2013-01-07 15:46:00,
2013-01-07 10:51:00,33.5,24.1,29.99,WNW,295,4.8,6.9,68,0.00,CLR,SCT,0.00,WeatherDisplay:10.37,2013-01-07 15:51:00,
2013-01-07 10:56:00,33.9,24.4,29.99,WNW,298,5.7,9.2,68,0.00,CLR,SCT,0.00,WeatherDisplay:10.37,2013-01-07 15:56:00,
2013-01-07 11:01:00,33.9,24.1,29.99,NW,325,4.3,8.1,67,0.00,CLR,SCT,0.00,WeatherDisplay:10.37,2013-01-07 16:01:00,
2013-01-07 11:06:00,33.8,24.0,29.99,NNE,13,3.6,7.0,67,0.00,CLR,SCT,0.00,WeatherDisplay:10.37,2013-01-07 16:06:00,
2013-01-07 11:11:00,34.0,23.8,29.99,NNW,339,4.3,5.8,66,0.00,CLR,SCT,0.00,WeatherDisplay:10.37,2013-01-07 16:11:00,
2013-01-07 11:16:00,34.2,23.7,29.99,NW,321,3.7,6.9,65,0.00,CLR,SCT,0.00,WeatherDisplay:10.37,2013-01-07 16:16:00,
2013-01-07 11:21:00,34.0,23.8,29.99,NW,322,5.7,8.1,66,0.00,CLR,SCT,0.00,WeatherDisplay:10.37,2013-01-07 16:21:00,
2013-01-07 11:26:00,34.1,23.6,29.99,NW,313,4.4,7.0,65,0.00,CLR,SCT,0.00,WeatherDisplay:10.37,2013-01-07 16:26:00,
2013-01-07 11:31:00,34.0,23.5,29.99,West,277,3.1,8.1,65,0.00,CLR,SCT,0.00,WeatherDisplay:10.37,2013-01-07 16:31:00,
2013-01-07 11:36:00,33.9,23.7,29.99,NNW,331,2.8,4.6,66,0.00,CLR,SCT,0.00,WeatherDisplay:10.37,2013-01-07 16:36:00,
2013-01-07 11:41:00,33.9,23.4,30.00,WNW,290,5.0,8.0,65,0.00,CLR,SCT,0.00,WeatherDisplay:10.37,2013-01-07 16:41:00,
2013-01-07 11:46:00,33.8,23.3,29.99,West,275,5.5,8.0,65,0.00,CLR,SCT,0.00,WeatherDisplay:10.37,2013-01-07 16:46:00,
2013-01-07 11:51:00,33.9,24.1,29.99,NNW,340,4.6,10.0,67,0.00,CLR,SCT,0.00,WeatherDisplay:10.37,2013-01-07 16:51:00,
2013-01-07 11:56:00,34.0,22.7,29.99,NNW,333,4.5,10.4,63,0.00,CLR,SCT,0.00,WeatherDisplay:10.37,2013-01-07 16:56:00,
2013-01-07 12:01:00,34.4,23.1,30.00,NNW,331,3.2,4.6,63,0.00,CLR,SCT,0.00,WeatherDisplay:10.37,2013-01-07 17:01:00,
2013-01-07 12:06:00,34.9,23.2,30.00,North,360,3.1,4.6,62,0.00,CLR,SCT,0.00,WeatherDisplay:10.37,2013-01-07 17:06:00,
2013-01-07 12:11:00,34.7,23.0,30.00,NW,318,5.5,9.2,62,0.00,CLR,SCT,0.00,WeatherDisplay:10.37,2013-01-07 17:11:00,
2013-01-07 12:16:00,34.2,22.9,29.99,NNE,13,5.0,6.9,63,0.00,CLR,SCT,0.00,WeatherDisplay:10.37,2013-01-07 17:16:00,
2013-01-07 12:21:00,33.9,22.6,30.00,NW,324,2.8,4.6,63,0.00,CLR,SCT,0.00,WeatherDisplay:10.37,2013-01-07 17:21:00,
2013-01-07 12:26:00,34.4,23.1,30.00,NW,306,4.3,5.8,63,0.00,CLR,SCT,0.00,WeatherDisplay:10.37,2013-01-07 17:26:00,
2013-01-07 12:31:00,34.3,23.0,30.00,NNW,334,4.0,6.9,63,0.00,CLR,SCT,0.00,WeatherDisplay:10.37,2013-01-07 17:31:00,
2013-01-07 12:36:00,34.2,22.5,30.00,NW,323,1.7,3.5,62,0.00,CLR,SCT,0.00,WeatherDisplay:10.37,2013-01-07 17:36:00,
2013-01-07 12:41:00,34.4,23.1,30.01,NW,321,5.0,8.1,63,0.00,CLR,SCT,0.00,WeatherDisplay:10.37,2013-01-07 17:41:00,
2013-01-07 12:46:00,34.2,22.1,30.00,West,279,3.9,6.9,61,0.00,CLR,SCT,0.00,WeatherDisplay:10.37,2013-01-07 17:46:00,
2013-01-07 12:51:00,34.7,23.4,30.00,NNW,334,4.2,9.0,63,0.00,CLR,SCT,0.00,WeatherDisplay:10.37,2013-01-07 17:51:00,
2013-01-07 12:56:00,34.4,22.3,30.00,NNE,19,4.7,5.8,61,0.00,CLR,SCT,0.00,WeatherDisplay:10.37,2013-01-07 17:56:00,
2013-01-07 13:01:00,34.5,22.8,30.00,NW,316,3.7,6.0,62,0.00,CLR,SCT,0.00,WeatherDisplay:10.37,2013-01-07 18:01:00,
2013-01-07 13:06:00,34.6,22.5,30.00,NNW,328,2.8,4.6,61,0.00,CLR,SCT,0.00,WeatherDisplay:10.37,2013-01-07 18:06:00,
2013-01-07 13:11:00,34.8,22.7,30.00,NW,319,4.3,5.8,61,0.00,CLR,SCT,0.00,WeatherDisplay:10.37,2013-01-07 18:11:00,
2013-01-07 13:16:00,34.3,22.2,30.00,North,360,5.1,9.2,61,0.00,CLR,SCT,0.00,WeatherDisplay:10.37,2013-01-07 18:16:00,
2013-01-07 13:21:00,34.1,21.7,30.01,North,360,4.3,6.9,60,0.00,CLR,SCT,0.00,WeatherDisplay:10.37,2013-01-07 18:21:00,
2013-01-07 13:26:00,34.7,22.2,30.01,NNW,336,0.5,2.3,60,0.00,CLR,SCT,0.00,WeatherDisplay:10.37,2013-01-07 18:26:00,
2013-01-07 13:31:00,35.3,22.8,30.01,North,11,1.1,3.5,60,0.00,CLR,SCT,0.00,WeatherDisplay:10.37,2013-01-07 18:31:00,
2013-01-07 13:36:00,35.0,22.1,30.01,NNW,329,5.8,6.9,59,0.00,CLR,SCT,0.00,WeatherDisplay:10.37,2013-01-07 18:36:00,
2013-01-07 13:41:00,35.1,23.0,30.02,West,265,2.3,5.8,61,0.00,CLR,SCT,0.00,WeatherDisplay:10.37,2013-01-07 18:41:00,
2013-01-07 13:46:00,35.1,22.6,30.02,NW,313,1.6,3.5,60,0.00,CLR,SCT,0.00,WeatherDisplay:10.37,2013-01-07 18:46:00,
2013-01-07 13:51:00,35.0,22.9,30.02,NW,326,4.4,5.8,61,0.00,CLR,SCT,0.00,WeatherDisplay:10.37,2013-01-07 18:51:00,
2013-01-07 13:56:00,34.6,22.5,30.02,WNW,296,3.1,4.6,61,0.00,CLR,SCT,0.00,WeatherDisplay:10.37,2013-01-07 18:56:00,
2013-01-07 14:01:00,35.0,22.9,30.03,WNW,303,1.9,3.5,61,0.00,CLR,SCT,0.00,WeatherDisplay:10.37,2013-01-07 19:01:00,
2013-01-07 14:06:00,34.9,22.4,30.02,NNW,330,4.4,5.8,60,0.00,CLR,SCT,0.00,WeatherDisplay:10.37,2013-01-07 19:06:00,
2013-01-07 14:11:00,34.7,22.2,30.03,NW,323,5.6,8.1,60,0.00,CLR,SCT,0.00,WeatherDisplay:10.37,2013-01-07 19:11:00,
2013-01-07 14:16:00,34.9,22.4,30.03,NW,317,5.7,6.9,60,0.00,CLR,SCT,0.00,WeatherDisplay:10.37,2013-01-07 19:16:00,
2013-01-07 14:21:00,34.5,22.4,30.03,NW,315,4.8,8.1,61,0.00,CLR,SCT,0.00,WeatherDisplay:10.37,2013-01-07 19:21:00,
2013-01-07 14:26:00,34.3,22.2,30.03,NNE,22,3.0,5.0,61,0.00,CLR,SCT,0.00,WeatherDisplay:10.37,2013-01-07 19:26:00,
2013-01-07 14:31:00,34.3,22.6,30.04,NNW,333,4.8,6.9,62,0.00,CLR,SCT,0.00,WeatherDisplay:10.37,2013-01-07 19:31:00,
2013-01-07 14:36:00,34.2,22.1,30.03,North,355,5.3,6.9,61,0.00,CLR,SCT,0.00,WeatherDisplay:10.37,2013-01-07 19:36:00,
2013-01-07 14:41:00,34.2,22.1,30.03,WNW,294,1.1,3.5,61,0.00,CLR,SCT,0.00,WeatherDisplay:10.37,2013-01-07 19:41:00,
2013-01-07 14:46:00,34.4,22.3,30.03,NW,315,2.3,4.6,61,0.00,CLR,SCT,0.00,WeatherDisplay:10.37,2013-01-07 19:46:00,
2013-01-07 14:51:00,34.3,22.2,30.03,NW,317,1.4,2.3,61,0.00,CLR,SCT,0.00,WeatherDisplay:10.37,2013-01-07 19:51:00,
2013-01-07 14:56:00,34.3,21.8,30.03,NNW,338,2.5,3.5,60,0.00,CLR,SCT,0.00,WeatherDisplay:10.37,2013-01-07 19:56:00,
2013-01-07 15:01:00,34.4,22.7,30.03,NW,324,1.4,2.3,62,0.00,CLR,SCT,0.00,WeatherDisplay:10.37,2013-01-07 20:01:00,
2013-01-07 15:06:00,34.5,22.4,30.04,North,360,0.9,2.3,61,0.00,CLR,SCT,0.00,WeatherDisplay:10.37,2013-01-07 20:06:00,
2013-01-07 15:11:00,34.4,22.3,30.04,NNW,342,1.0,4.0,61,0.00,CLR,SCT,0.00,WeatherDisplay:10.37,2013-01-07 20:11:00,
2013-01-07 15:16:00,34.3,22.2,30.04,NNW,328,1.5,2.3,61,0.00,CLR,SCT,0.00,WeatherDisplay:10.37,2013-01-07 20:16:00,
2013-01-07 15:19:00,34.3,22.2,30.04,NNW,334,4.2,4.6,61,0.00,CLR,SCT,0.00,WeatherDisplay:10.37,2013-01-07 20:19:00,
2013-01-07 15:24:00,34.3,22.2,30.04,North,10,2.2,5.0,61,0.00,CLR,SCT,0.00,WeatherDisplay:10.37,2013-01-07 20:24:00,
2013-01-07 15:29:00,34.1,22.0,30.03,North,355,1.6,3.5,61,0.00,CLR,SCT,0.00,WeatherDisplay:10.37,2013-01-07 20:29:00,
2013-01-07 15:34:00,34.0,22.0,30.04,North,5,0.0,0.0,61,0.00,CLR,SCT,0.00,WeatherDisplay:10.37,2013-01-07 20:34:00,
2013-01-07 15:39:00,33.9,21.9,30.04,North,5,0.9,2.3,61,0.00,CLR,SCT,0.00,WeatherDisplay:10.37,2013-01-07 20:39:00,
2013-01-07 15:44:00,33.9,21.9,30.04,NW,323,0.3,1.1,61,0.00,CLR,SCT,0.00,WeatherDisplay:10.37,2013-01-07 20:44:00,
2013-01-07 15:49:00,33.7,21.7,30.04,NW,323,0.9,2.3,61,0.00,CLR,SCT,0.00,WeatherDisplay:10.37,2013-01-07 20:49:00,
2013-01-07 15:54:00,33.6,22.0,30.05,NW,323,0.1,1.1,62,0.00,CLR,SCT,0.00,WeatherDisplay:10.37,2013-01-07 20:54:00,
2013-01-07 15:59:00,33.5,21.5,30.05,NW,323,0.4,1.1,61,0.00,CLR,SCT,0.00,WeatherDisplay:10.37,2013-01-07 20:59:00,
2013-01-07 16:04:00,33.5,21.1,30.05,NW,323,0.4,1.1,60,0.00,CLR,SCT,0.00,WeatherDisplay:10.37,2013-01-07 21:04:00,
2013-01-07 16:09:00,33.5,21.5,30.05,NW,323,0.0,0.0,61,0.00,CLR,SCT,0.00,WeatherDisplay:10.37,2013-01-07 21:09:00,
2013-01-07 16:14:00,33.4,21.4,30.06,NW,323,0.7,1.1,61,0.00,CLR,SCT,0.00,WeatherDisplay:10.37,2013-01-07 21:14:00,
2013-01-07 16:19:00,33.2,21.2,30.06,NW,323,0.0,0.0,61,0.00,CLR,SCT,0.00,WeatherDisplay:10.37,2013-01-07 21:19:00,
2013-01-07 16:24:00,33.1,21.5,30.06,NW,323,0.2,1.1,62,0.00,CLR,SCT,0.00,WeatherDisplay:10.37,2013-01-07 21:24:00,
2013-01-07 16:29:00,33.0,21.4,30.06,NW,323,0.1,1.1,62,0.00,CLR,SCT,0.00,WeatherDisplay:10.37,2013-01-07 21:29:00,
2013-01-07 16:34:00,32.9,21.3,30.06,NW,323,0.2,1.1,62,0.00,CLR,SCT,0.00,WeatherDisplay:10.37,2013-01-07 21:34:00,
2013-01-07 16:39:00,32.7,21.5,30.06,NW,323,0.1,1.1,63,0.00,CLR,SCT,0.00,WeatherDisplay:10.37,2013-01-07 21:39:00,
2013-01-07 16:44:00,32.6,21.4,30.07,NW,323,0.4,1.1,63,0.00,CLR,SCT,0.00,WeatherDisplay:10.37,2013-01-07 21:44:00,
2013-01-07 16:49:00,32.3,21.5,30.07,NW,323,0.3,1.1,64,0.00,CLR,SCT,0.00,WeatherDisplay:10.37,2013-01-07 21:49:00,
2013-01-07 16:54:00,32.1,21.3,30.07,NW,323,0.1,1.1,64,0.00,CLR,SCT,0.00,WeatherDisplay:10.37,2013-01-07 21:54:00,
2013-01-07 16:59:00,31.7,21.3,30.07,NW,323,0.1,1.1,65,0.00,CLR,SCT,0.00,WeatherDisplay:10.37,2013-01-07 21:59:00,
2013-01-07 17:04:00,31.1,21.1,30.07,NW,323,0.0,0.0,66,0.00,CLR,SCT,0.00,WeatherDisplay:10.37,2013-01-07 22:04:00,
2013-01-07 17:09:00,30.7,21.0,30.07,NW,323,0.3,1.1,67,0.00,CLR,SCT,0.00,WeatherDisplay:10.37,2013-01-07 22:09:00,
2013-01-07 17:14:00,30.5,20.8,30.07,NW,323,1.1,2.3,67,0.00,CLR,SCT,0.00,WeatherDisplay:10.37,2013-01-07 22:14:00,
2013-01-07 17:19:00,30.3,21.0,30.07,NW,323,0.7,1.1,68,0.00,CLR,SCT,0.00,WeatherDisplay:10.37,2013-01-07 22:19:00,
2013-01-07 17:24:00,30.2,20.9,30.07,NW,323,0.0,0.0,68,0.00,CLR,SCT,0.00,WeatherDisplay:10.37,2013-01-07 22:24:00,
2013-01-07 17:29:00,30.3,21.0,30.07,NW,323,0.0,0.0,68,0.00,CLR,SCT,0.00,WeatherDisplay:10.37,2013-01-07 22:29:00,
2013-01-07 17:34:00,30.4,21.1,30.07,NW,323,0.0,0.0,68,0.00,CLR,SCT,0.00,WeatherDisplay:10.37,2013-01-07 22:34:00,
2013-01-07 17:39:00,30.4,21.1,30.07,NW,323,0.0,0.0,68,0.00,CLR,SCT,0.00,WeatherDisplay:10.37,2013-01-07 22:39:00,
2013-01-07 17:44:00,30.3,21.0,30.07,NW,323,0.0,0.0,68,0.00,CLR,SCT,0.00,WeatherDisplay:10.37,2013-01-07 22:44:00,
2013-01-07 17:49:00,30.4,21.1,30.06,NW,323,0.1,1.1,68,0.00,CLR,SCT,0.00,WeatherDisplay:10.37,2013-01-07 22:49:00,
2013-01-07 17:54:00,30.3,20.6,30.06,NW,323,0.4,1.1,67,0.00,CLR,SCT,0.00,WeatherDisplay:10.37,2013-01-07 22:54:00,
2013-01-07 17:59:00,29.6,20.7,30.06,ESE,117,2.3,3.5,69,0.00,CLR,SCT,0.00,WeatherDisplay:10.37,2013-01-07 22:59:00,
2013-01-07 18:04:00,29.0,20.4,30.06,ESE,117,1.6,4.0,70,0.00,CLR,SCT,0.00,WeatherDisplay:10.37,2013-01-07 23:04:00,
2013-01-07 18:09:00,29.2,20.6,30.06,ESE,113,0.4,1.1,70,0.00,CLR,SCT,0.00,WeatherDisplay:10.37,2013-01-07 23:09:00,
2013-01-07 18:14:00,29.4,20.5,30.06,ESE,113,0.0,0.0,69,0.00,CLR,SCT,0.00,WeatherDisplay:10.37,2013-01-07 23:14:00,
2013-01-07 18:19:00,29.5,20.6,30.06,ESE,113,0.0,0.0,69,0.00,CLR,SCT,0.00,WeatherDisplay:10.37,2013-01-07 23:19:00,
2013-01-07 18:24:00,29.7,20.4,30.06,ESE,113,0.0,1.1,68,0.00,CLR,SCT,0.00,WeatherDisplay:10.37,2013-01-07 23:24:00,
2013-01-07 18:29:00,29.8,20.5,30.07,ESE,113,0.0,0.0,68,0.00,CLR,SCT,0.00,WeatherDisplay:10.37,2013-01-07 23:29:00,
2013-01-07 18:34:00,29.0,20.4,30.07,ESE,113,2.2,3.5,70,0.00,CLR,SCT,0.00,WeatherDisplay:10.37,2013-01-07 23:34:00,
2013-01-07 18:39:00,28.4,20.2,30.06,ESE,113,1.0,2.3,71,0.00,CLR,SCT,0.00,WeatherDisplay:10.37,2013-01-07 23:39:00,
2013-01-07 18:44:00,28.1,20.2,30.07,ESE,114,1.0,2.3,72,0.00,CLR,SCT,0.00,WeatherDisplay:10.37,2013-01-07 23:44:00,
2013-01-07 18:49:00,28.4,20.2,30.06,ESE,114,0.1,1.1,71,0.00,CLR,SCT,0.00,WeatherDisplay:10.37,2013-01-07 23:49:00,
2013-01-07 18:54:00,28.6,20.4,30.06,ESE,114,1.5,2.3,71,0.00,CLR,SCT,0.00,WeatherDisplay:10.37,2013-01-07 23:54:00,
2013-01-07 18:59:00,28.3,20.1,30.06,ESE,114,1.3,2.3,71,0.00,CLR,SCT,0.00,WeatherDisplay:10.37,2013-01-07 23:59:00,
2013-01-07 19:04:00,27.9,20.0,30.07,ESE,114,0.9,2.3,72,0.00,CLR,SCT,0.00,WeatherDisplay:10.37,2013-01-08 00:04:00,
2013-01-07 19:09:00,27.9,20.0,30.07,ESE,114,0.6,2.3,72,0.00,CLR,SCT,0.00,WeatherDisplay:10.37,2013-01-08 00:09:00,
2013-01-07 19:14:00,27.8,19.9,30.07,ESE,114,1.2,2.3,72,0.00,CLR,SCT,0.00,WeatherDisplay:10.37,2013-01-08 00:14:00,
2013-01-07 19:19:00,27.7,20.2,30.07,ESE,114,0.2,1.1,73,0.00,CLR,SCT,0.00,WeatherDisplay:10.37,2013-01-08 00:19:00,
2013-01-07 19:24:00,27.9,20.0,30.07,ESE,114,0.0,0.0,72,0.00,CLR,SCT,0.00,WeatherDisplay:10.37,2013-01-08 00:24:00,
2013-01-07 19:29:00,28.1,20.2,30.06,ESE,114,0.0,0.0,72,0.00,CLR,SCT,0.00,WeatherDisplay:10.37,2013-01-08 00:29:00,
2013-01-07 19:34:00,28.5,20.3,30.07,ESE,114,0.3,1.1,71,0.00,CLR,SCT,0.00,WeatherDisplay:10.37,2013-01-08 00:34:00,
2013-01-07 19:39:00,28.7,20.1,30.06,ESE,114,1.4,2.3,70,0.00,CLR,SCT,0.00,WeatherDisplay:10.37,2013-01-08 00:39:00,
2013-01-07 19:44:00,28.6,20.1,30.06,ESE,114,0.0,0.0,70,0.00,CLR,SCT,0.00,WeatherDisplay:10.37,2013-01-08 00:44:00,
2013-01-07 19:49:00,28.7,20.1,30.06,ESE,114,0.0,0.0,70,0.00,CLR,SCT,0.00,WeatherDisplay:10.37,2013-01-08 00:49:00,
2013-01-07 19:54:00,28.7,20.1,30.06,ESE,114,0.7,1.1,70,0.00,CLR,SCT,0.00,WeatherDisplay:10.37,2013-01-08 00:54:00,
2013-01-07 19:59:00,28.5,20.0,30.06,ESE,114,0.6,1.1,70,0.00,CLR,SCT,0.00,WeatherDisplay:10.37,2013-01-08 00:59:00,
2013-01-07 20:04:00,28.4,20.2,30.06,ESE,114,0.3,1.1,71,0.00,CLR,SCT,0.00,WeatherDisplay:10.37,2013-01-08 01:04:00,
2013-01-07 20:09:00,28.4,20.2,30.06,ESE,114,0.0,0.0,71,0.00,CLR,SCT,0.00,WeatherDisplay:10.37,2013-01-08 01:09:00,
2013-01-07 20:14:00,28.5,20.0,30.06,ESE,114,0.0,0.0,70,0.00,CLR,SCT,0.00,WeatherDisplay:10.37,2013-01-08 01:14:00,
2013-01-07 20:19:00,28.5,20.0,30.06,ESE,114,0.0,0.0,70,0.00,CLR,SCT,0.00,WeatherDisplay:10.37,2013-01-08 01:19:00,
2013-01-07 20:24:00,28.4,20.2,30.06,ESE,114,0.8,1.1,71,0.00,CLR,SCT,0.00,WeatherDisplay:10.37,2013-01-08 01:24:00,
2013-01-07 20:29:00,28.1,19.9,30.07,ESE,114,0.1,1.1,71,0.00,CLR,SCT,0.00,WeatherDisplay:10.37,2013-01-08 01:29:00,
2013-01-07 20:34:00,27.8,19.9,30.07,ESE,114,0.9,1.1,72,0.00,CLR,SCT,0.00,WeatherDisplay:10.37,2013-01-08 01:34:00,
2013-01-07 20:39:00,27.5,19.7,30.07,ESE,114,0.5,1.1,72,0.00,CLR,SCT,0.00,WeatherDisplay:10.37,2013-01-08 01:39:00,
2013-01-07 20:44:00,27.6,20.1,30.07,ESE,114,0.0,0.0,73,0.00,CLR,SCT,0.00,WeatherDisplay:10.37,2013-01-08 01:44:00,
2013-01-07 20:49:00,27.7,20.2,30.06,ESE,114,0.0,0.0,73,0.00,CLR,SCT,0.00,WeatherDisplay:10.37,2013-01-08 01:49:00,
2013-01-07 20:54:00,27.9,20.0,30.06,ESE,114,0.0,0.0,72,0.00,CLR,SCT,0.00,WeatherDisplay:10.37,2013-01-08 01:54:00,
2013-01-07 20:59:00,27.9,20.4,30.06,ESE,114,0.9,1.1,73,0.00,CLR,SCT,0.00,WeatherDisplay:10.37,2013-01-08 01:59:00,
2013-01-07 21:04:00,27.8,20.3,30.06,ESE,114,1.0,2.3,73,0.00,CLR,SCT,0.00,WeatherDisplay:10.37,2013-01-08 02:04:00,
2013-01-07 21:09:00,27.4,19.9,30.06,ESE,114,0.7,1.1,73,0.00,CLR,SCT,0.00,WeatherDisplay:10.37,2013-01-08 02:09:00,
2013-01-07 21:14:00,27.2,20.0,30.06,ESE,114,0.4,1.1,74,0.00,CLR,SCT,0.00,WeatherDisplay:10.37,2013-01-08 02:14:00,
2013-01-07 21:19:00,27.1,19.9,30.06,ESE,114,0.4,1.1,74,0.00,CLR,SCT,0.00,WeatherDisplay:10.37,2013-01-08 02:19:00,
2013-01-07 21:24:00,27.1,19.9,30.06,ESE,114,1.4,2.3,74,0.00,CLR,SCT,0.00,WeatherDisplay:10.37,2013-01-08 02:24:00,
2013-01-07 21:29:00,27.2,20.0,30.06,ESE,114,1.2,2.3,74,0.00,CLR,SCT,0.00,WeatherDisplay:10.37,2013-01-08 02:29:00,
2013-01-07 21:34:00,27.4,20.2,30.06,ESE,114,0.9,1.1,74,0.00,CLR,SCT,0.00,WeatherDisplay:10.37,2013-01-08 02:34:00,
2013-01-07 21:39:00,27.6,20.1,30.07,ESE,114,1.1,2.3,73,0.00,CLR,SCT,0.00,WeatherDisplay:10.37,2013-01-08 02:39:00,
2013-01-07 21:44:00,27.3,20.1,30.06,ESE,114,0.2,1.1,74,0.00,CLR,SCT,0.00,WeatherDisplay:10.37,2013-01-08 02:44:00,
2013-01-07 21:49:00,27.2,20.0,30.07,ESE,114,0.4,1.1,74,0.00,CLR,SCT,0.00,WeatherDisplay:10.37,2013-01-08 02:49:00,
2013-01-07 21:54:00,27.4,20.2,30.06,ESE,114,0.4,1.1,74,0.00,CLR,SCT,0.00,WeatherDisplay:10.37,2013-01-08 02:54:00,
2013-01-07 21:59:00,27.5,20.3,30.06,ESE,114,1.3,2.3,74,0.00,CLR,SCT,0.00,WeatherDisplay:10.37,2013-01-08 02:59:00,
2013-01-07 22:04:00,27.6,20.7,30.06,ESE,114,1.4,2.3,75,0.00,CLR,SCT,0.00,WeatherDisplay:10.37,2013-01-08 03:04:00,
2013-01-07 22:09:00,27.2,20.3,30.06,ESE,114,1.6,2.3,75,0.00,CLR,SCT,0.00,WeatherDisplay:10.37,2013-01-08 03:09:00,
2013-01-07 22:14:00,27.0,20.4,30.06,ESE,114,1.4,3.5,76,0.00,CLR,SCT,0.00,WeatherDisplay:10.37,2013-01-08 03:14:00,
2013-01-07 22:19:00,27.0,20.4,30.06,ESE,114,1.1,2.3,76,0.00,CLR,SCT,0.00,WeatherDisplay:10.37,2013-01-08 03:19:00,
2013-01-07 22:24:00,27.1,20.5,30.06,ESE,114,1.1,2.3,76,0.00,CLR,SCT,0.00,WeatherDisplay:10.37,2013-01-08 03:24:00,
2013-01-07 22:29:00,27.2,20.6,30.06,ESE,114,1.0,2.3,76,0.00,CLR,SCT,0.00,WeatherDisplay:10.37,2013-01-08 03:29:00,
2013-01-07 22:34:00,27.1,20.5,30.06,ESE,114,1.6,2.3,76,0.00,CLR,SCT,0.00,WeatherDisplay:10.37,2013-01-08 03:34:00,
2013-01-07 22:39:00,27.4,20.8,30.06,ESE,114,1.8,2.3,76,0.00,CLR,SCT,0.00,WeatherDisplay:10.37,2013-01-08 03:39:00,
2013-01-07 22:44:00,27.5,20.9,30.06,ESE,114,1.8,2.3,76,0.00,CLR,SCT,0.00,WeatherDisplay:10.37,2013-01-08 03:44:00,
2013-01-07 22:49:00,27.4,20.8,30.05,ESE,116,1.5,2.3,76,0.00,CLR,SCT,0.00,WeatherDisplay:10.37,2013-01-08 03:49:00,
2013-01-07 22:54:00,27.6,20.7,30.05,ESE,123,1.6,3.5,75,0.00,CLR,SCT,0.00,WeatherDisplay:10.37,2013-01-08 03:54:00,
2013-01-07 22:59:00,27.6,20.7,30.05,ESE,123,1.0,1.1,75,0.00,CLR,SCT,0.00,WeatherDisplay:10.37,2013-01-08 03:59:00,
2013-01-07 23:04:00,27.6,20.7,30.05,SE,128,1.0,2.3,75,0.00,CLR,SCT,0.00,WeatherDisplay:10.37,2013-01-08 04:04:00,
2013-01-07 23:09:00,27.9,20.7,30.06,SE,128,1.6,2.3,74,0.00,CLR,SCT,0.00,WeatherDisplay:10.37,2013-01-08 04:09:00,
2013-01-07 23:14:00,27.8,20.6,30.05,SE,140,1.6,2.3,74,0.00,CLR,SCT,0.00,WeatherDisplay:10.37,2013-01-08 04:14:00,
2013-01-07 23:19:00,27.5,20.3,30.05,SE,140,1.5,2.3,74,0.00,CLR,SCT,0.00,WeatherDisplay:10.37,2013-01-08 04:19:00,
2013-01-07 23:24:00,27.1,20.2,30.05,SE,140,2.0,3.5,75,0.00,CLR,SCT,0.00,WeatherDisplay:10.37,2013-01-08 04:24:00,
2013-01-07 23:29:00,27.2,20.3,30.05,SE,140,0.7,1.1,75,0.00,CLR,SCT,0.00,WeatherDisplay:10.37,2013-01-08 04:29:00,
2013-01-07 23:34:00,27.6,20.4,30.05,SE,140,1.3,2.3,74,0.00,CLR,SCT,0.00,WeatherDisplay:10.37,2013-01-08 04:34:00,
2013-01-07 23:39:00,27.9,20.7,30.05,SE,140,0.6,1.1,74,0.00,CLR,SCT,0.00,WeatherDisplay:10.37,2013-01-08 04:39:00,
2013-01-07 23:44:00,28.1,20.9,30.05,SE,140,0.7,2.3,74,0.00,CLR,SCT,0.00,WeatherDisplay:10.37,2013-01-08 04:44:00,
2013-01-07 23:49:00,28.1,20.6,30.05,SE,140,1.5,2.3,73,0.00,CLR,SCT,0.00,WeatherDisplay:10.37,2013-01-08 04:49:00,
2013-01-07 23:54:00,28.0,20.8,30.05,SE,140,1.2,3.5,74,0.00,CLR,SCT,0.00,WeatherDisplay:10.37,2013-01-08 04:54:00,
2013-01-07 23:59:00,28.1,20.9,30.05,SE,140,1.6,2.3,74,0.00,CLR,SCT,0.00,WeatherDisplay:10.37,2013-01-08 04:59:00,